createdAt,value
2018-09-25T00:00:18.914Z,2.07
2018-09-25T00:00:58.807Z,2.10
2018-09-25T00:01:38.750Z,1.97
2018-09-25T00:02:18.652Z,2.13
2018-09-25T00:02:58.775Z,2.10
2018-09-25T00:03:38.817Z,2.00
2018-09-25T00:04:18.704Z,1.87
2018-09-25T00:04:58.802Z,1.80
2018-09-25T00:05:38.826Z,1.43
2018-09-25T00:06:18.800Z,2.20
2018-09-25T00:06:58.676Z,1.90
2018-09-25T00:07:38.574Z,2.20
2018-09-25T00:08:18.348Z,1.97
2018-09-25T00:08:58.481Z,1.90
2018-09-25T00:09:38.513Z,1.93
2018-09-25T00:10:18.585Z,1.90
2018-09-25T00:10:58.619Z,1.80
2018-09-25T00:11:38.454Z,1.83
2018-09-25T00:12:18.229Z,1.93
2018-09-25T00:12:58.822Z,1.80
2018-09-25T00:13:38.679Z,1.80
2018-09-25T00:14:18.632Z,1.87
2018-09-25T00:14:58.484Z,2.00
2018-09-25T00:15:38.274Z,1.87
2018-09-25T00:16:18.166Z,1.60
2018-09-25T00:16:58.119Z,1.90
2018-09-25T00:17:38.152Z,1.70
2018-09-25T00:18:18.008Z,1.97
2018-09-25T00:18:58.642Z,1.70
2018-09-25T00:19:38.491Z,1.87
2018-09-25T00:20:18.412Z,1.70
2018-09-25T00:20:58.504Z,1.67
2018-09-25T00:21:38.318Z,1.80
2018-09-25T00:22:18.293Z,1.50
2018-09-25T00:22:58.416Z,2.00
2018-09-25T00:23:38.279Z,1.87
2018-09-25T00:24:18.517Z,1.97
2018-09-25T00:24:58.562Z,1.80
2018-09-25T00:25:38.602Z,1.97
2018-09-25T00:26:18.444Z,1.80
2018-09-25T00:26:58.580Z,2.00
2018-09-25T00:27:38.632Z,1.90
2018-09-25T00:28:18.626Z,1.90
2018-09-25T00:28:58.747Z,2.00
2018-09-25T00:29:39.182Z,2.27
2018-09-25T00:30:19.190Z,2.10
2018-09-25T00:30:59.436Z,1.97
2018-09-25T00:31:39.596Z,1.80
2018-09-25T00:32:19.635Z,1.90
2018-09-25T00:32:59.682Z,1.80
2018-09-25T00:33:39.730Z,1.63
2018-09-25T00:34:19.539Z,1.97
2018-09-25T00:34:59.718Z,1.83
2018-09-25T00:35:39.589Z,1.90
2018-09-25T00:36:19.473Z,1.93
2018-09-25T00:36:59.455Z,1.67
2018-09-25T00:37:39.435Z,1.60
2018-09-25T00:38:19.244Z,1.70
2018-09-25T00:38:59.324Z,1.83
2018-09-25T00:39:39.196Z,1.70
2018-09-25T00:40:19.049Z,1.77
2018-09-25T00:41:27.537Z,2.17
2018-09-25T00:42:07.426Z,1.50
2018-09-25T00:42:47.282Z,1.60
2018-09-25T00:43:27.366Z,2.30
2018-09-25T00:44:07.679Z,1.57
2018-09-25T00:44:48.139Z,1.80
2018-09-25T00:45:28.687Z,1.73
2018-09-25T00:46:09.075Z,1.90
2018-09-25T00:46:48.884Z,1.80
2018-09-25T00:47:29.028Z,2.13
2018-09-25T00:48:08.907Z,2.00
2018-09-25T00:48:48.856Z,1.87
2018-09-25T00:49:28.879Z,2.30
2018-09-25T00:50:08.721Z,1.67
2018-09-25T00:50:48.661Z,1.80
2018-09-25T00:51:29.215Z,2.10
2018-09-25T00:52:08.946Z,1.70
2018-09-25T00:52:48.862Z,1.90
2018-09-25T00:53:28.985Z,1.80
2018-09-25T00:54:08.799Z,1.77
2018-09-25T00:54:48.859Z,1.90
2018-09-25T00:55:28.839Z,1.90
2018-09-25T00:56:08.817Z,1.80
2018-09-25T00:56:48.766Z,2.10
2018-09-25T00:57:28.788Z,1.70
2018-09-25T00:58:08.786Z,2.00
2018-09-25T00:58:48.700Z,1.73
2018-09-25T00:59:28.814Z,1.80
2018-09-25T01:00:08.778Z,2.00
2018-09-25T01:00:48.795Z,1.70
2018-09-25T01:01:28.921Z,1.70
2018-09-25T01:02:08.904Z,1.97
2018-09-25T01:02:48.746Z,1.50
2018-09-25T01:03:28.807Z,1.87
2018-09-25T01:04:08.559Z,1.70
2018-09-25T01:04:48.473Z,1.93
2018-09-25T01:05:28.569Z,2.03
2018-09-25T01:06:08.520Z,2.20
2018-09-25T01:06:48.330Z,1.90
2018-09-25T01:07:28.846Z,1.50
2018-09-25T01:08:08.572Z,2.10
2018-09-25T01:08:48.748Z,1.80
2018-09-25T01:09:28.820Z,1.60
2018-09-25T01:10:08.849Z,1.50
2018-09-25T01:10:48.810Z,1.60
2018-09-25T01:11:28.722Z,1.97
2018-09-25T01:12:08.570Z,1.63
2018-09-25T01:12:48.632Z,1.60
2018-09-25T01:13:28.696Z,1.73
2018-09-25T01:14:09.105Z,1.90
2018-09-25T01:14:49.242Z,2.00
2018-09-25T01:15:29.334Z,2.20
2018-09-25T01:16:09.226Z,1.90
2018-09-25T01:16:49.030Z,1.70
2018-09-25T01:17:29.379Z,1.67
2018-09-25T01:18:09.175Z,2.10
2018-09-25T01:18:49.081Z,1.90
2018-09-25T01:19:29.276Z,2.00
2018-09-25T01:20:09.294Z,1.43
2018-09-25T01:20:49.414Z,2.47
2018-09-25T01:21:29.630Z,1.83
2018-09-25T01:22:09.139Z,2.30
2018-09-25T01:22:49.030Z,1.70
2018-09-25T01:23:29.091Z,2.10
2018-09-25T01:24:09.251Z,1.70
2018-09-25T01:24:49.168Z,1.97
2018-09-25T01:25:29.704Z,1.87
2018-09-25T01:26:09.068Z,1.70
2018-09-25T01:26:49.066Z,1.70
2018-09-25T01:27:29.185Z,1.60
2018-09-25T01:28:09.061Z,1.73
2018-09-25T01:28:48.492Z,1.97
2018-09-25T01:29:29.022Z,1.90
2018-09-25T01:30:09.162Z,2.23
2018-09-25T01:30:48.961Z,1.93
2018-09-25T01:31:29.288Z,1.77
2018-09-25T01:32:09.896Z,1.90
2018-09-25T01:32:49.932Z,2.37
2018-09-25T01:33:29.974Z,1.50
2018-09-25T01:34:09.772Z,1.77
2018-09-25T01:34:49.815Z,1.80
2018-09-25T01:35:30.033Z,2.47
2018-09-25T01:36:09.985Z,1.80
2018-09-25T01:36:49.915Z,1.97
2018-09-25T01:37:30.140Z,1.80
2018-09-25T01:38:10.192Z,1.80
2018-09-25T01:38:50.182Z,1.70
2018-09-25T01:39:30.061Z,1.60
2018-09-25T01:40:10.453Z,1.63
2018-09-25T01:40:50.454Z,2.10
2018-09-25T01:41:30.485Z,1.60
2018-09-25T01:42:10.593Z,1.80
2018-09-25T01:42:50.320Z,1.60
2018-09-25T01:43:30.343Z,1.40
2018-09-25T01:44:10.194Z,1.53
2018-09-25T01:44:50.132Z,2.20
2018-09-25T01:45:30.307Z,2.10
2018-09-25T01:46:10.236Z,1.70
2018-09-25T01:46:50.184Z,2.10
2018-09-25T01:47:30.263Z,1.90
2018-09-25T01:48:10.119Z,1.67
2018-09-25T01:48:50.084Z,1.60
2018-09-25T01:49:30.461Z,2.03
2018-09-25T01:50:10.510Z,1.80
2018-09-25T01:50:50.307Z,1.93
2018-09-25T01:51:30.384Z,1.63
2018-09-25T01:52:10.326Z,1.77
2018-09-25T01:52:50.142Z,2.03
2018-09-25T01:53:30.361Z,1.60
2018-09-25T01:54:10.421Z,1.77
2018-09-25T01:54:50.465Z,1.93
2018-09-25T01:55:30.538Z,1.90
2018-09-25T01:56:10.436Z,2.03
2018-09-25T01:56:50.496Z,1.97
2018-09-25T01:57:30.653Z,2.07
2018-09-25T01:58:10.551Z,1.77
2018-09-25T01:58:50.421Z,1.70
2018-09-25T01:59:30.536Z,1.63
2018-09-25T02:00:11.390Z,1.70
2018-09-25T02:00:51.326Z,1.60
2018-09-25T02:01:31.273Z,1.87
2018-09-25T02:02:11.227Z,1.80
2018-09-25T02:02:51.177Z,1.83
2018-09-25T02:03:31.204Z,2.00
2018-09-25T02:04:11.106Z,1.73
2018-09-25T02:04:51.178Z,1.53
2018-09-25T02:05:31.215Z,1.83
2018-09-25T02:06:11.246Z,1.83
2018-09-25T02:06:51.343Z,1.70
2018-09-25T02:07:31.155Z,2.00
2018-09-25T02:08:11.831Z,1.90
2018-09-25T02:08:52.125Z,1.77
2018-09-25T02:09:32.256Z,1.60
2018-09-25T02:10:12.100Z,1.70
2018-09-25T02:10:52.014Z,1.63
2018-09-25T02:11:31.964Z,1.60
2018-09-25T02:12:12.034Z,1.50
2018-09-25T02:12:52.097Z,1.63
2018-09-25T02:13:31.536Z,1.60
2018-09-25T02:14:11.429Z,1.77
2018-09-25T02:14:51.489Z,1.93
2018-09-25T02:15:31.578Z,2.30
2018-09-25T02:16:11.929Z,1.70
2018-09-25T02:16:51.646Z,1.57
2018-09-25T02:17:31.630Z,2.27
2018-09-25T02:18:11.651Z,1.50
2018-09-25T02:18:51.477Z,2.07
2018-09-25T02:19:31.390Z,1.67
2018-09-25T02:20:11.627Z,1.60
2018-09-25T02:20:52.026Z,2.03
2018-09-25T02:21:32.014Z,1.93
2018-09-25T02:22:12.028Z,1.50
2018-09-25T02:22:52.243Z,1.80
2018-09-25T02:23:32.248Z,1.70
2018-09-25T02:24:12.351Z,1.63
2018-09-25T02:24:52.231Z,2.23
2018-09-25T02:25:32.499Z,1.87
2018-09-25T02:26:12.305Z,1.90
2018-09-25T02:26:52.059Z,1.67
2018-09-25T02:27:32.157Z,1.50
2018-09-25T02:28:12.322Z,2.00
2018-09-25T02:28:52.191Z,1.70
2018-09-25T02:29:32.456Z,1.93
2018-09-25T02:30:12.777Z,1.87
2018-09-25T02:30:52.887Z,2.10
2018-09-25T02:31:32.386Z,1.97
2018-09-25T02:32:12.712Z,2.20
2018-09-25T02:32:52.645Z,2.00
2018-09-25T02:33:33.003Z,1.83
2018-09-25T02:34:13.057Z,1.90
2018-09-25T02:34:53.083Z,1.60
2018-09-25T02:35:33.452Z,2.00
2018-09-25T02:36:13.254Z,2.07
2018-09-25T02:36:53.284Z,1.77
2018-09-25T02:37:33.321Z,2.00
2018-09-25T02:43:29.735Z,2.10
2018-09-25T02:44:09.838Z,1.90
2018-09-25T02:44:49.948Z,1.90
2018-09-25T02:45:30.087Z,1.90
2018-09-25T02:46:10.144Z,2.30
2018-09-25T02:46:50.045Z,2.07
2018-09-25T02:47:30.000Z,1.87
2018-09-25T02:48:09.857Z,1.67
2018-09-25T02:48:49.713Z,2.30
2018-09-25T02:49:30.086Z,2.40
2018-09-25T02:50:10.192Z,2.00
2018-09-25T02:50:50.162Z,2.87
2018-09-25T02:51:30.167Z,1.70
2018-09-25T02:52:10.565Z,2.30
2018-09-25T02:52:50.431Z,2.17
2018-09-25T02:53:30.916Z,1.87
2018-09-25T02:54:11.030Z,2.20
2018-09-25T02:54:50.980Z,2.33
2018-09-25T02:55:30.975Z,2.00
2018-09-25T02:56:11.505Z,2.10
2018-09-25T02:56:51.347Z,1.97
2018-09-25T02:57:31.396Z,1.80
2018-09-25T02:58:11.373Z,1.70
2018-09-25T02:58:51.262Z,2.47
2018-09-25T02:59:31.392Z,2.23
2018-09-25T03:00:11.532Z,2.03
2018-09-25T03:00:51.634Z,1.97
2018-09-25T03:01:31.710Z,2.00
2018-09-25T03:02:11.647Z,2.20
2018-09-25T03:02:51.454Z,2.00
2018-09-25T03:03:31.544Z,2.10
2018-09-25T03:04:11.818Z,2.33
2018-09-25T03:04:51.911Z,1.80
2018-09-25T03:05:32.122Z,2.00
2018-09-25T03:06:12.410Z,2.00
2018-09-25T03:06:52.273Z,1.83
2018-09-25T03:07:32.306Z,1.70
2018-09-25T03:08:12.648Z,1.80
2018-09-25T03:08:52.499Z,2.43
2018-09-25T03:09:32.546Z,2.13
2018-09-25T03:10:12.740Z,2.00
2018-09-25T03:10:52.694Z,1.93
2018-09-25T03:11:32.834Z,2.40
2018-09-25T03:12:12.896Z,2.70
2018-09-25T03:12:53.023Z,1.93
2018-09-25T03:13:33.038Z,1.90
2018-09-25T03:14:13.135Z,2.90
2018-09-25T03:14:53.046Z,1.93
2018-09-25T03:15:33.063Z,1.97
2018-09-25T03:16:13.456Z,2.33
2018-09-25T03:16:53.380Z,1.90
2018-09-25T03:17:33.355Z,2.20
2018-09-25T03:18:13.165Z,1.70
2018-09-25T03:18:53.135Z,2.10
2018-09-25T03:19:33.156Z,1.50
2018-09-25T03:20:13.455Z,1.97
2018-09-25T03:20:53.391Z,2.20
2018-09-25T03:21:33.551Z,2.10
2018-09-25T03:22:13.478Z,1.90
2018-09-25T03:22:53.255Z,1.67
2018-09-25T03:23:33.085Z,1.70
2018-09-25T03:24:13.178Z,1.90
2018-09-25T03:24:53.095Z,2.17
2018-09-25T03:25:33.048Z,1.57
2018-09-25T03:26:12.847Z,2.00
2018-09-25T03:26:52.775Z,1.60
2018-09-25T03:27:33.059Z,1.93
2018-09-25T03:28:12.842Z,1.73
2018-09-25T03:28:52.917Z,2.33
2018-09-25T03:29:32.982Z,2.27
2018-09-25T03:30:12.903Z,2.10
2018-09-25T03:30:52.856Z,2.10
2018-09-25T03:31:33.029Z,1.97
2018-09-25T03:32:12.995Z,1.93
2018-09-25T03:32:53.049Z,1.70
2018-09-25T03:33:33.089Z,2.10
2018-09-25T03:34:12.918Z,2.37
2018-09-25T03:34:52.855Z,1.83
2018-09-25T03:35:32.974Z,2.60
2018-09-25T03:36:13.005Z,1.90
2018-09-25T03:36:53.101Z,1.40
2018-09-25T03:37:33.123Z,1.73
2018-09-25T03:38:13.016Z,1.93
2018-09-25T03:38:52.909Z,2.00
2018-09-25T03:39:32.743Z,1.80
2018-09-25T03:40:12.549Z,2.20
2018-09-25T03:40:52.356Z,1.77
2018-09-25T03:41:32.453Z,1.93
2018-09-25T03:42:12.290Z,2.10
2018-09-25T03:42:52.221Z,1.80
2018-09-25T03:43:32.563Z,1.90
2018-09-25T03:44:12.811Z,2.30
2018-09-25T03:44:52.607Z,2.10
2018-09-25T03:45:32.561Z,2.30
2018-09-25T03:46:12.485Z,2.40
2018-09-25T03:46:52.436Z,2.83
2018-09-25T03:47:32.471Z,3.30
2018-09-25T03:48:12.222Z,3.93
2018-09-25T03:48:52.106Z,4.00
2018-09-25T03:49:32.330Z,4.87
2018-09-25T03:50:12.248Z,3.90
2018-09-25T03:50:52.193Z,4.30
2018-09-25T03:51:32.221Z,4.90
2018-09-25T03:52:11.938Z,4.20
2018-09-25T03:52:51.938Z,4.83
2018-09-25T03:53:32.126Z,4.47
2018-09-25T03:54:12.161Z,4.93
2018-09-25T03:54:52.205Z,5.23
2018-09-25T03:55:32.347Z,4.97
2018-09-25T03:56:12.102Z,4.63
2018-09-25T03:56:51.978Z,5.07
2018-09-25T03:57:31.906Z,4.73
2018-09-25T03:58:11.805Z,4.80
2018-09-25T03:58:51.735Z,4.97
2018-09-25T03:59:31.799Z,4.80
2018-09-25T04:00:12.016Z,4.90
2018-09-25T04:00:52.077Z,4.43
2018-09-25T04:01:31.923Z,4.80
2018-09-25T04:02:11.886Z,4.17
2018-09-25T04:02:51.686Z,4.70
2018-09-25T04:03:32.104Z,4.63
2018-09-25T04:04:11.947Z,4.10
2018-09-25T04:04:51.805Z,4.33
2018-09-25T04:05:31.899Z,4.37
2018-09-25T04:06:12.043Z,3.93
2018-09-25T04:06:52.163Z,4.57
2018-09-25T04:07:32.219Z,4.47
2018-09-25T04:08:12.311Z,3.83
2018-09-25T04:08:52.205Z,3.80
2018-09-25T04:09:32.237Z,3.20
2018-09-25T04:10:12.174Z,3.50
2018-09-25T04:10:51.978Z,3.63
2018-09-25T04:11:32.209Z,3.60
2018-09-25T04:12:11.917Z,3.43
2018-09-25T04:12:51.865Z,3.53
2018-09-25T04:13:31.966Z,3.20
2018-09-25T04:14:11.769Z,3.60
2018-09-25T04:14:51.668Z,3.20
2018-09-25T04:15:31.747Z,3.57
2018-09-25T04:16:11.588Z,3.60
2018-09-25T04:16:51.528Z,3.30
2018-09-25T04:17:31.726Z,3.27
2018-09-25T04:18:12.072Z,3.13
2018-09-25T04:18:52.156Z,3.20
2018-09-25T04:19:32.019Z,3.10
2018-09-25T04:20:12.454Z,3.00
2018-09-25T04:20:52.350Z,3.27
2018-09-25T04:21:32.342Z,3.60
2018-09-25T04:22:12.605Z,3.03
2018-09-25T04:22:52.627Z,3.33
2018-09-25T04:23:32.716Z,2.97
2018-09-25T04:24:13.003Z,3.13
2018-09-25T04:24:52.929Z,3.40
2018-09-25T04:25:32.982Z,3.00
2018-09-25T04:26:13.368Z,2.93
2018-09-25T04:26:53.314Z,2.90
2018-09-25T04:27:32.741Z,3.10
2018-09-25T04:28:12.803Z,3.07
2018-09-25T04:28:52.934Z,3.17
2018-09-25T04:29:32.908Z,2.70
2018-09-25T04:30:12.969Z,2.60
2018-09-25T04:30:53.056Z,2.60
2018-09-25T04:31:33.223Z,2.83
2018-09-25T04:32:13.215Z,3.47
2018-09-25T04:32:53.186Z,2.53
2018-09-25T04:33:32.974Z,3.33
2018-09-25T04:34:12.725Z,2.70
2018-09-25T04:34:52.512Z,2.70
2018-09-25T04:35:32.667Z,2.47
2018-09-25T04:36:13.003Z,2.63
2018-09-25T04:36:53.066Z,2.57
2018-09-25T04:37:33.147Z,2.30
2018-09-25T04:38:13.214Z,2.47
2018-09-25T04:38:53.299Z,2.70
2018-09-25T04:39:33.512Z,2.60
2018-09-25T04:40:14.060Z,2.60
2018-09-25T04:40:53.979Z,2.70
2018-09-25T04:41:33.934Z,2.60
2018-09-25T04:42:13.638Z,2.43
2018-09-25T04:42:53.516Z,2.47
2018-09-25T04:43:33.502Z,2.90
2018-09-25T04:44:13.679Z,2.33
2018-09-25T04:44:53.510Z,2.60
2018-09-25T04:45:33.639Z,2.33
2018-09-25T04:46:13.502Z,2.80
2018-09-25T04:46:53.455Z,2.20
2018-09-25T04:47:33.492Z,2.30
2018-09-25T04:48:13.260Z,2.60
2018-09-25T04:48:53.441Z,2.60
2018-09-25T04:49:33.528Z,3.00
2018-09-25T04:50:13.795Z,2.50
2018-09-25T04:50:53.932Z,2.73
2018-09-25T04:51:34.109Z,2.53
2018-09-25T04:52:13.847Z,2.23
2018-09-25T04:52:54.160Z,2.50
2018-09-25T04:53:34.570Z,3.47
2018-09-25T04:54:14.599Z,2.70
2018-09-25T04:54:54.529Z,3.00
2018-09-25T04:55:34.565Z,2.63
2018-09-25T04:56:14.275Z,3.20
2018-09-25T04:56:54.440Z,2.70
2018-09-25T04:57:34.482Z,3.07
2018-09-25T04:58:14.493Z,2.63
2018-09-25T04:58:54.595Z,2.83
2018-09-25T04:59:34.627Z,2.83
2018-09-25T05:00:14.445Z,2.70
2018-09-25T05:00:54.345Z,2.77
2018-09-25T05:01:40.695Z,2.73
2018-09-25T05:02:20.657Z,2.90
2018-09-25T05:03:00.736Z,3.00
2018-09-25T05:03:40.677Z,2.83
2018-09-25T05:04:20.499Z,2.57
2018-09-25T05:05:00.492Z,2.50
2018-09-25T05:05:40.344Z,2.53
2018-09-25T05:06:20.116Z,2.63
2018-09-25T05:07:00.241Z,2.57
2018-09-25T05:07:40.446Z,3.30
2018-09-25T05:08:20.226Z,2.73
2018-09-25T05:09:00.354Z,3.17
2018-09-25T05:09:40.379Z,2.67
2018-09-25T05:10:20.354Z,2.87
2018-09-25T05:11:00.470Z,2.77
2018-09-25T05:11:40.525Z,3.07
2018-09-25T05:12:20.327Z,3.50
2018-09-25T05:13:00.242Z,3.10
2018-09-25T05:13:40.102Z,3.37
2018-09-25T05:14:20.218Z,3.20
2018-09-25T05:15:00.290Z,3.27
2018-09-25T05:15:40.222Z,2.93
2018-09-25T05:16:20.080Z,2.90
2018-09-25T05:17:00.079Z,2.43
2018-09-25T05:17:39.926Z,3.07
2018-09-25T05:18:19.820Z,3.00
2018-09-25T05:18:59.817Z,3.50
2018-09-25T05:19:39.654Z,3.13
2018-09-25T05:20:19.542Z,2.63
2018-09-25T05:20:59.628Z,2.73
2018-09-25T05:21:39.393Z,3.17
2018-09-25T05:22:19.343Z,3.20
2018-09-25T05:22:59.322Z,2.70
2018-09-25T05:23:39.238Z,3.47
2018-09-25T05:24:19.317Z,2.80
2018-09-25T05:24:59.375Z,3.13
2018-09-25T05:25:39.555Z,2.90
2018-09-25T05:26:19.481Z,3.27
2018-09-25T05:26:59.586Z,3.10
2018-09-25T05:27:39.491Z,3.23
2018-09-25T05:28:19.396Z,2.70
2018-09-25T05:28:59.567Z,3.03
2018-09-25T05:29:39.786Z,2.90
2018-09-25T05:30:19.803Z,2.90
2018-09-25T05:30:59.822Z,3.23
2018-09-25T05:31:40.136Z,3.33
2018-09-25T05:32:19.833Z,3.00
2018-09-25T05:32:59.717Z,2.83
2018-09-25T05:33:39.835Z,3.63
2018-09-25T05:34:19.842Z,3.17
2018-09-25T05:34:59.887Z,3.43
2018-09-25T05:35:40.037Z,3.20
2018-09-25T05:36:19.957Z,3.03
2018-09-25T05:37:00.061Z,3.40
2018-09-25T05:37:40.235Z,3.00
2018-09-25T05:38:20.076Z,3.03
2018-09-25T05:39:00.275Z,3.53
2018-09-25T05:39:40.241Z,3.10
2018-09-25T05:40:20.347Z,2.73
2018-09-25T05:41:00.486Z,2.87
2018-09-25T05:41:40.602Z,3.20
2018-09-25T05:42:20.667Z,3.13
2018-09-25T05:43:00.680Z,3.37
2018-09-25T05:43:40.381Z,3.20
2018-09-25T05:44:20.499Z,3.17
2018-09-25T05:45:00.548Z,3.87
2018-09-25T05:45:40.328Z,3.33
2018-09-25T05:46:20.377Z,3.43
2018-09-25T05:47:00.439Z,3.03
2018-09-25T05:47:40.487Z,3.10
2018-09-25T05:48:20.441Z,2.80
2018-09-25T05:49:01.465Z,3.10
2018-09-25T05:49:41.516Z,2.80
2018-09-25T05:50:21.515Z,2.93
2018-09-25T05:51:01.681Z,3.20
2018-09-25T05:51:41.747Z,3.40
2018-09-25T05:52:21.708Z,3.13
2018-09-25T05:53:01.832Z,3.33
2018-09-25T05:53:41.627Z,3.80
2018-09-25T05:54:21.686Z,3.67
2018-09-25T05:55:01.710Z,3.30
2018-09-25T05:55:41.529Z,3.17
2018-09-25T05:56:21.696Z,3.23
2018-09-25T05:57:02.337Z,3.33
2018-09-25T05:57:42.491Z,3.30
2018-09-25T05:58:22.358Z,3.07
2018-09-25T05:59:02.286Z,3.30
2018-09-25T05:59:42.281Z,3.17
2018-09-25T06:00:22.152Z,3.33
2018-09-25T06:01:02.389Z,2.60
2018-09-25T06:01:42.488Z,3.77
2018-09-25T06:02:22.393Z,2.73
2018-09-25T06:03:02.526Z,3.10
2018-09-25T06:03:42.314Z,3.13
2018-09-25T06:04:22.288Z,3.33
2018-09-25T06:05:02.547Z,3.10
2018-09-25T06:05:42.399Z,3.83
2018-09-25T06:06:22.338Z,3.37
2018-09-25T06:07:02.362Z,3.37
2018-09-25T06:07:42.094Z,3.57
2018-09-25T06:08:22.103Z,3.73
2018-09-25T06:09:02.167Z,3.03
2018-09-25T06:09:42.262Z,3.87
2018-09-25T06:10:22.177Z,3.53
2018-09-25T06:11:02.483Z,3.33
2018-09-25T06:11:42.352Z,3.60
2018-09-25T06:12:22.390Z,3.53
2018-09-25T06:13:02.466Z,3.73
2018-09-25T06:13:42.269Z,3.07
2018-09-25T06:14:22.348Z,3.40
2018-09-25T06:15:03.213Z,3.20
2018-09-25T06:15:43.273Z,3.23
2018-09-25T06:16:23.574Z,3.57
2018-09-25T06:17:03.627Z,3.40
2018-09-25T06:17:43.396Z,3.47
2018-09-25T06:18:23.245Z,3.77
2018-09-25T06:19:03.138Z,2.97
2018-09-25T06:19:42.932Z,3.73
2018-09-25T06:20:23.070Z,3.47
2018-09-25T06:21:03.114Z,3.50
2018-09-25T06:21:43.118Z,3.50
2018-09-25T06:22:23.445Z,3.03
2018-09-25T06:23:03.511Z,3.53
2018-09-25T06:23:43.522Z,3.27
2018-09-25T06:24:23.439Z,3.43
2018-09-25T06:25:03.449Z,3.40
2018-09-25T06:25:43.426Z,3.10
2018-09-25T06:26:23.452Z,3.47
2018-09-25T06:27:03.394Z,3.87
2018-09-25T06:27:43.157Z,3.67
2018-09-25T06:28:23.095Z,3.00
2018-09-25T06:29:03.147Z,3.33
2018-09-25T06:29:43.006Z,3.37
2018-09-25T06:30:22.853Z,3.10
2018-09-25T06:31:02.949Z,2.60
2018-09-25T06:31:43.065Z,2.90
2018-09-25T06:32:23.215Z,3.20
2018-09-25T06:33:03.255Z,2.97
2018-09-25T06:33:43.031Z,2.97
2018-09-25T06:34:22.882Z,3.43
2018-09-25T06:35:02.972Z,2.90
2018-09-25T06:35:42.924Z,3.67
2018-09-25T06:36:22.794Z,3.33
2018-09-25T06:37:02.675Z,2.93
2018-09-25T06:37:42.414Z,3.00
2018-09-25T06:38:22.159Z,3.00
2018-09-25T06:39:02.258Z,3.37
2018-09-25T06:39:42.254Z,3.27
2018-09-25T06:40:22.204Z,3.10
2018-09-25T06:41:02.419Z,3.20
2018-09-25T06:41:42.550Z,3.07
2018-09-25T06:42:22.635Z,3.57
2018-09-25T06:43:02.414Z,3.13
2018-09-25T06:43:42.509Z,3.60
2018-09-25T06:44:22.434Z,2.87
2018-09-25T06:45:02.511Z,3.40
2018-09-25T06:45:42.728Z,3.20
2018-09-25T06:46:22.534Z,3.47
2018-09-25T06:47:02.911Z,3.07
2018-09-25T06:47:43.047Z,3.87
2018-09-25T06:48:23.098Z,3.30
2018-09-25T06:49:03.199Z,3.53
2018-09-25T06:49:43.202Z,3.83
2018-09-25T06:50:23.199Z,3.43
2018-09-25T06:51:03.125Z,3.53
2018-09-25T06:51:43.162Z,3.77
2018-09-25T06:52:23.031Z,3.87
2018-09-25T06:53:03.175Z,3.90
2018-09-25T06:53:43.053Z,3.47
2018-09-25T06:54:22.920Z,4.00
2018-09-25T06:55:03.496Z,3.07
2018-09-25T06:55:43.615Z,3.67
2018-09-25T06:56:23.531Z,3.10
2018-09-25T06:57:03.460Z,3.90
2018-09-25T06:57:43.221Z,4.07
2018-09-25T06:58:23.165Z,4.23
2018-09-25T06:59:03.557Z,3.23
2018-09-25T06:59:43.546Z,3.80
2018-09-25T07:00:23.506Z,3.60
2018-09-25T07:01:03.672Z,3.40
2018-09-25T07:01:43.719Z,3.73
2018-09-25T07:02:23.780Z,3.53
2018-09-25T07:03:04.087Z,3.50
2018-09-25T07:03:43.855Z,3.57
2018-09-25T07:04:23.739Z,4.07
2018-09-25T07:05:03.788Z,4.13
2018-09-25T07:05:43.736Z,3.50
2018-09-25T07:06:23.808Z,3.73
2018-09-25T07:07:03.976Z,3.97
2018-09-25T07:07:43.745Z,3.50
2018-09-25T07:08:23.564Z,3.90
2018-09-25T07:09:03.866Z,4.57
2018-09-25T07:09:43.981Z,3.87
2018-09-25T07:10:24.209Z,3.57
2018-09-25T07:11:04.140Z,3.73
2018-09-25T07:11:44.181Z,4.00
2018-09-25T07:12:24.157Z,4.00
2018-09-25T07:13:04.362Z,3.50
2018-09-25T07:13:44.165Z,4.00
2018-09-25T07:14:23.964Z,4.27
2018-09-25T07:15:03.910Z,3.00
2018-09-25T07:15:43.915Z,3.70
2018-09-25T07:16:23.700Z,3.20
2018-09-25T07:17:03.759Z,3.80
2018-09-25T07:17:43.666Z,3.67
2018-09-25T07:18:23.763Z,3.43
2018-09-25T07:19:04.001Z,3.57
2018-09-25T07:19:43.831Z,2.90
2018-09-25T07:20:23.778Z,3.57
2018-09-25T07:21:04.190Z,3.00
2018-09-25T07:21:44.238Z,4.20
2018-09-25T07:22:24.166Z,3.77
2018-09-25T07:23:04.210Z,3.07
2018-09-25T07:23:44.298Z,3.43
2018-09-25T07:24:24.146Z,2.90
2018-09-25T07:25:04.375Z,3.37
2018-09-25T07:25:44.358Z,2.83
2018-09-25T07:26:24.247Z,3.00
2018-09-25T07:27:04.354Z,2.83
2018-09-25T07:27:44.170Z,3.40
2018-09-25T07:28:23.880Z,3.10
2018-09-25T07:29:03.890Z,3.57
2018-09-25T07:29:43.838Z,2.93
2018-09-25T07:30:23.738Z,3.40
2018-09-25T07:31:03.834Z,3.63
2018-09-25T07:31:43.811Z,3.67
2018-09-25T07:32:23.681Z,3.67
2018-09-25T07:33:03.514Z,3.73
2018-09-25T07:33:43.291Z,3.13
2018-09-25T07:34:23.165Z,3.20
2018-09-25T07:35:03.113Z,3.13
2018-09-25T07:35:42.953Z,2.73
2018-09-25T07:36:22.811Z,3.03
2018-09-25T07:37:02.874Z,2.70
2018-09-25T07:37:42.581Z,3.93
2018-09-25T07:38:22.569Z,3.50
2018-09-25T07:39:02.491Z,3.20
2018-09-25T07:39:42.294Z,3.20
2018-09-25T07:40:22.166Z,2.77
2018-09-25T07:41:02.246Z,3.33
2018-09-25T07:41:42.167Z,3.53
2018-09-25T07:42:21.915Z,3.10
2018-09-25T07:43:02.027Z,2.93
2018-09-25T07:43:41.917Z,3.00
2018-09-25T07:44:21.920Z,3.40
2018-09-25T07:45:02.035Z,3.60
2018-09-25T07:45:41.820Z,3.20
2018-09-25T07:46:21.985Z,3.10
2018-09-25T07:47:01.952Z,3.10
2018-09-25T07:47:41.979Z,3.57
2018-09-25T07:48:22.028Z,3.13
2018-09-25T07:49:02.331Z,3.03
2018-09-25T07:49:42.210Z,3.17
2018-09-25T07:50:22.513Z,3.40
2018-09-25T07:51:02.490Z,3.60
2018-09-25T07:51:42.348Z,3.23
2018-09-25T07:52:22.309Z,3.37
2018-09-25T07:53:02.307Z,3.30
2018-09-25T07:53:42.117Z,3.17
2018-09-25T07:54:21.857Z,3.20
2018-09-25T07:55:01.769Z,3.17
2018-09-25T07:55:41.694Z,3.27
2018-09-25T07:56:21.619Z,3.17
2018-09-25T07:57:01.363Z,2.73
2018-09-25T07:57:41.162Z,2.83
2018-09-25T07:58:21.118Z,2.70
2018-09-25T07:59:01.209Z,3.20
2018-09-25T07:59:41.638Z,3.00
2018-09-25T08:00:21.515Z,2.60
2018-09-25T08:01:01.555Z,3.57
2018-09-25T08:01:41.602Z,3.10
2018-09-25T08:02:21.410Z,3.80
2018-09-25T08:03:01.552Z,2.90
2018-09-25T08:03:41.570Z,2.67
2018-09-25T08:04:21.898Z,3.03
2018-09-25T08:05:01.905Z,2.70
2018-09-25T08:05:41.923Z,2.60
2018-09-25T08:06:21.850Z,3.17
2018-09-25T08:07:01.698Z,2.47
2018-09-25T08:07:41.636Z,2.90
2018-09-25T08:08:21.712Z,2.30
2018-09-25T08:09:01.734Z,2.20
2018-09-25T08:09:41.794Z,2.83
2018-09-25T08:10:21.555Z,2.60
2018-09-25T08:11:01.625Z,2.60
2018-09-25T08:11:41.536Z,2.40
2018-09-25T08:12:21.433Z,2.43
2018-09-25T08:13:01.440Z,2.60
2018-09-25T08:13:41.280Z,2.43
2018-09-25T08:14:21.561Z,3.00
2018-09-25T08:15:01.592Z,1.87
2018-09-25T08:15:41.366Z,2.37
2018-09-25T08:16:21.429Z,2.53
2018-09-25T08:17:01.526Z,2.27
2018-09-25T08:17:41.416Z,2.10
2018-09-25T08:18:21.449Z,2.30
2018-09-25T08:19:01.498Z,2.47
2018-09-25T08:19:41.421Z,2.33
2018-09-25T08:20:21.452Z,2.10
2018-09-25T08:21:01.681Z,2.30
2018-09-25T08:21:41.604Z,1.83
2018-09-25T08:22:21.648Z,2.57
2018-09-25T08:23:01.841Z,1.87
2018-09-25T08:23:41.757Z,2.30
2018-09-25T08:24:21.675Z,2.07
2018-09-25T08:25:01.754Z,2.10
2018-09-25T08:25:41.644Z,2.23
2018-09-25T08:26:21.574Z,1.60
2018-09-25T08:27:01.719Z,1.50
2018-09-25T08:27:41.582Z,2.43
2018-09-25T08:28:21.597Z,2.13
2018-09-25T08:29:01.629Z,2.00
2018-09-25T08:29:41.572Z,1.97
2018-09-25T08:30:21.543Z,2.13
2018-09-25T08:31:01.708Z,1.73
2018-09-25T08:31:41.721Z,1.73
2018-09-25T08:32:21.665Z,1.47
2018-09-25T08:33:01.663Z,1.50
2018-09-25T08:33:41.676Z,2.00
2018-09-25T08:34:21.676Z,1.90
2018-09-25T08:35:01.738Z,1.80
2018-09-25T08:35:41.843Z,1.83
2018-09-25T08:36:21.691Z,2.00
2018-09-25T08:37:01.846Z,1.87
2018-09-25T08:37:41.594Z,2.23
2018-09-25T08:38:21.500Z,1.80
2018-09-25T08:39:01.352Z,1.87
2018-09-25T08:39:41.469Z,1.87
2018-09-25T08:40:21.425Z,1.93
2018-09-25T08:41:01.016Z,2.23
2018-09-25T08:41:40.529Z,2.13
2018-09-25T08:42:20.484Z,1.83
2018-09-25T08:43:00.159Z,2.10
2018-09-25T08:43:40.450Z,1.77
2018-09-25T08:44:20.344Z,1.83
2018-09-25T08:45:00.246Z,1.97
2018-09-25T08:45:40.170Z,2.03
2018-09-25T08:46:20.239Z,1.83
2018-09-25T08:47:00.447Z,2.03
2018-09-25T08:47:40.383Z,1.80
2018-09-25T08:48:20.450Z,1.77
2018-09-25T08:49:00.470Z,1.70
2018-09-25T08:49:40.348Z,1.80
2018-09-25T08:50:19.709Z,2.17
2018-09-25T08:50:59.922Z,1.70
2018-09-25T08:51:39.941Z,1.57
2018-09-25T08:52:19.842Z,2.33
2018-09-25T08:52:59.916Z,1.90
2018-09-25T08:53:39.828Z,1.87
2018-09-25T08:54:20.118Z,1.80
2018-09-25T08:55:00.250Z,1.97
2018-09-25T08:55:40.195Z,1.83
2018-09-25T08:56:19.433Z,1.50
2018-09-25T08:56:59.530Z,1.67
2018-09-25T08:57:39.354Z,1.53
2018-09-25T08:58:19.186Z,1.90